sensor_id;sensor_type;location;lat;lon;timestamp;temperature;humidity
85097;SHT30;75436;53.502;10.030;2024-02-21T00:01:22;9.15;86.75
85097;SHT30;75436;53.502;10.030;2024-02-21T00:03:47;9.01;87.21
85097;SHT30;75436;53.502;10.030;2024-02-21T00:06:13;8.99;87.55
85097;SHT30;75436;53.502;10.030;2024-02-21T00:08:38;9.00;87.82
85097;SHT30;75436;53.502;10.030;2024-02-21T00:11:04;8.94;88.16
85097;SHT30;75436;53.502;10.030;2024-02-21T00:13:29;8.99;88.20
85097;SHT30;75436;53.502;10.030;2024-02-21T00:15:55;8.85;88.82
85097;SHT30;75436;53.502;10.030;2024-02-21T00:18:21;8.90;89.01
85097;SHT30;75436;53.502;10.030;2024-02-21T00:20:47;8.81;89.42
85097;SHT30;75436;53.502;10.030;2024-02-21T00:23:13;8.79;89.41
85097;SHT30;75436;53.502;10.030;2024-02-21T00:25:38;8.93;89.46
85097;SHT30;75436;53.502;10.030;2024-02-21T00:28:05;8.96;88.76
85097;SHT30;75436;53.502;10.030;2024-02-21T00:30:31;8.97;88.84
85097;SHT30;75436;53.502;10.030;2024-02-21T00:32:57;8.85;89.18
85097;SHT30;75436;53.502;10.030;2024-02-21T00:35:24;8.87;89.28
85097;SHT30;75436;53.502;10.030;2024-02-21T00:37:51;8.81;89.41
85097;SHT30;75436;53.502;10.030;2024-02-21T00:40:19;8.91;89.35
85097;SHT30;75436;53.502;10.030;2024-02-21T00:42:46;8.88;89.38
85097;SHT30;75436;53.502;10.030;2024-02-21T00:45:13;8.88;89.32
85097;SHT30;75436;53.502;10.030;2024-02-21T00:47:38;8.85;89.50
85097;SHT30;75436;53.502;10.030;2024-02-21T00:50:04;8.99;89.09
85097;SHT30;75436;53.502;10.030;2024-02-21T00:52:30;8.88;89.31
85097;SHT30;75436;53.502;10.030;2024-02-21T00:54:56;8.99;89.01
85097;SHT30;75436;53.502;10.030;2024-02-21T00:57:24;8.96;89.18
85097;SHT30;75436;53.502;10.030;2024-02-21T00:59:51;8.90;89.34
85097;SHT30;75436;53.502;10.030;2024-02-21T01:02:17;8.91;89.38
85097;SHT30;75436;53.502;10.030;2024-02-21T01:04:45;8.96;89.35
85097;SHT30;75436;53.502;10.030;2024-02-21T01:07:10;9.07;89.23
85097;SHT30;75436;53.502;10.030;2024-02-21T01:09:36;8.97;89.34
85097;SHT30;75436;53.502;10.030;2024-02-21T01:12:01;8.96;89.30
85097;SHT30;75436;53.502;10.030;2024-02-21T01:14:33;9.01;89.55
85097;SHT30;75436;53.502;10.030;2024-02-21T01:16:59;9.00;89.16
85097;SHT30;75436;53.502;10.030;2024-02-21T01:19:24;9.03;89.18
85097;SHT30;75436;53.502;10.030;2024-02-21T01:21:50;9.13;88.76
85097;SHT30;75436;53.502;10.030;2024-02-21T01:24:15;9.03;89.15
85097;SHT30;75436;53.502;10.030;2024-02-21T01:26:41;8.99;89.51
85097;SHT30;75436;53.502;10.030;2024-02-21T01:29:06;9.08;89.25
85097;SHT30;75436;53.502;10.030;2024-02-21T01:31:31;8.99;89.43
85097;SHT30;75436;53.502;10.030;2024-02-21T01:33:58;8.97;89.60
85097;SHT30;75436;53.502;10.030;2024-02-21T01:36:23;9.08;89.38
85097;SHT30;75436;53.502;10.030;2024-02-21T01:38:50;9.01;89.63
85097;SHT30;75436;53.502;10.030;2024-02-21T01:41:15;8.97;89.84
85097;SHT30;75436;53.502;10.030;2024-02-21T01:43:41;8.94;90.15
85097;SHT30;75436;53.502;10.030;2024-02-21T01:46:07;8.90;90.40
85097;SHT30;75436;53.502;10.030;2024-02-21T01:48:35;8.94;90.51
85097;SHT30;75436;53.502;10.030;2024-02-21T01:51:04;9.00;90.71
85097;SHT30;75436;53.502;10.030;2024-02-21T01:53:38;8.93;91.27
85097;SHT30;75436;53.502;10.030;2024-02-21T01:56:06;8.76;91.95
85097;SHT30;75436;53.502;10.030;2024-02-21T01:58:33;8.69;92.54
85097;SHT30;75436;53.502;10.030;2024-02-21T02:01:02;8.73;92.66
85097;SHT30;75436;53.502;10.030;2024-02-21T02:03:27;8.63;92.83
85097;SHT30;75436;53.502;10.030;2024-02-21T02:05:53;8.69;92.86
85097;SHT30;75436;53.502;10.030;2024-02-21T02:08:19;8.60;92.88
85097;SHT30;75436;53.502;10.030;2024-02-21T02:10:47;8.62;92.97
85097;SHT30;75436;53.502;10.030;2024-02-21T02:13:13;8.70;92.65
85097;SHT30;75436;53.502;10.030;2024-02-21T02:15:44;8.64;92.72
85097;SHT30;75436;53.502;10.030;2024-02-21T02:18:11;8.60;92.88
85097;SHT30;75436;53.502;10.030;2024-02-21T02:20:38;8.63;92.81
85097;SHT30;75436;53.502;10.030;2024-02-21T02:23:26;8.67;92.47
85097;SHT30;75436;53.502;10.030;2024-02-21T02:25:52;8.70;92.35
85097;SHT30;75436;53.502;10.030;2024-02-21T02:28:18;8.83;92.01
85097;SHT30;75436;53.502;10.030;2024-02-21T02:30:44;8.74;92.05
85097;SHT30;75436;53.502;10.030;2024-02-21T02:33:10;8.72;92.02
85097;SHT30;75436;53.502;10.030;2024-02-21T02:35:37;8.80;91.52
85097;SHT30;75436;53.502;10.030;2024-02-21T02:38:04;8.85;91.32
85097;SHT30;75436;53.502;10.030;2024-02-21T02:40:33;8.90;91.31
85097;SHT30;75436;53.502;10.030;2024-02-21T02:42:59;8.81;91.15
85097;SHT30;75436;53.502;10.030;2024-02-21T02:45:26;8.88;91.01
85097;SHT30;75436;53.502;10.030;2024-02-21T02:47:56;8.84;90.97
85097;SHT30;75436;53.502;10.030;2024-02-21T02:50:26;8.83;91.08
85097;SHT30;75436;53.502;10.030;2024-02-21T02:52:53;8.87;90.67
85097;SHT30;75436;53.502;10.030;2024-02-21T02:55:19;8.88;90.77
85097;SHT30;75436;53.502;10.030;2024-02-21T02:57:45;8.87;90.66
85097;SHT30;75436;53.502;10.030;2024-02-21T03:00:12;8.80;90.82
85097;SHT30;75436;53.502;10.030;2024-02-21T03:02:41;8.85;90.61
85097;SHT30;75436;53.502;10.030;2024-02-21T03:05:20;8.94;90.33
85097;SHT30;75436;53.502;10.030;2024-02-21T03:07:47;8.90;90.53
85097;SHT30;75436;53.502;10.030;2024-02-21T03:10:13;9.03;89.82
85097;SHT30;75436;53.502;10.030;2024-02-21T03:12:39;8.93;90.12
85097;SHT30;75436;53.502;10.030;2024-02-21T03:15:06;8.97;89.77
85097;SHT30;75436;53.502;10.030;2024-02-21T03:17:32;8.94;90.11
85097;SHT30;75436;53.502;10.030;2024-02-21T03:20:03;9.03;89.63
85097;SHT30;75436;53.502;10.030;2024-02-21T03:22:34;9.11;88.98
85097;SHT30;75436;53.502;10.030;2024-02-21T03:25:00;9.11;89.21
85097;SHT30;75436;53.502;10.030;2024-02-21T03:27:26;9.13;88.92
85097;SHT30;75436;53.502;10.030;2024-02-21T03:29:51;9.20;88.74
85097;SHT30;75436;53.502;10.030;2024-02-21T03:32:17;9.08;88.96
85097;SHT30;75436;53.502;10.030;2024-02-21T03:34:42;9.15;88.85
85097;SHT30;75436;53.502;10.030;2024-02-21T03:37:08;9.13;88.83
85097;SHT30;75436;53.502;10.030;2024-02-21T03:39:34;9.15;88.52
85097;SHT30;75436;53.502;10.030;2024-02-21T03:42:02;9.14;88.52
85097;SHT30;75436;53.502;10.030;2024-02-21T03:44:32;9.18;88.51
85097;SHT30;75436;53.502;10.030;2024-02-21T03:46:59;9.22;88.22
85097;SHT30;75436;53.502;10.030;2024-02-21T03:49:26;9.18;88.39
85097;SHT30;75436;53.502;10.030;2024-02-21T03:51:52;9.14;88.50
85097;SHT30;75436;53.502;10.030;2024-02-21T03:54:19;9.15;88.65
85097;SHT30;75436;53.502;10.030;2024-02-21T03:56:45;9.18;88.31
85097;SHT30;75436;53.502;10.030;2024-02-21T03:59:13;9.24;88.17
85097;SHT30;75436;53.502;10.030;2024-02-21T04:01:38;9.21;88.41
85097;SHT30;75436;53.502;10.030;2024-02-21T04:04:04;9.20;88.56
85097;SHT30;75436;53.502;10.030;2024-02-21T04:06:29;9.13;89.41
85097;SHT30;75436;53.502;10.030;2024-02-21T04:08:55;9.00;90.45
85097;SHT30;75436;53.502;10.030;2024-02-21T04:11:20;8.99;90.76
85097;SHT30;75436;53.502;10.030;2024-02-21T04:13:46;8.91;91.40
85097;SHT30;75436;53.502;10.030;2024-02-21T04:16:14;8.77;91.67
85097;SHT30;75436;53.502;10.030;2024-02-21T04:18:43;8.74;92.18
85097;SHT30;75436;53.502;10.030;2024-02-21T04:21:13;8.74;92.11
85097;SHT30;75436;53.502;10.030;2024-02-21T04:23:39;8.70;92.30
85097;SHT30;75436;53.502;10.030;2024-02-21T04:26:04;8.67;92.19
85097;SHT30;75436;53.502;10.030;2024-02-21T04:28:29;8.76;92.34
85097;SHT30;75436;53.502;10.030;2024-02-21T04:30:56;8.73;91.64
85097;SHT30;75436;53.502;10.030;2024-02-21T04:33:21;8.79;91.63
85097;SHT30;75436;53.502;10.030;2024-02-21T04:35:47;8.73;91.85
85097;SHT30;75436;53.502;10.030;2024-02-21T04:38:12;8.70;91.97
85097;SHT30;75436;53.502;10.030;2024-02-21T04:40:38;8.70;92.16
85097;SHT30;75436;53.502;10.030;2024-02-21T04:43:03;8.72;92.09
85097;SHT30;75436;53.502;10.030;2024-02-21T04:45:31;8.72;92.30
85097;SHT30;75436;53.502;10.030;2024-02-21T04:47:56;8.64;92.69
85097;SHT30;75436;53.502;10.030;2024-02-21T04:50:23;8.72;92.57
85097;SHT30;75436;53.502;10.030;2024-02-21T04:52:48;8.63;93.12
85097;SHT30;75436;53.502;10.030;2024-02-21T04:55:15;8.62;93.11
85097;SHT30;75436;53.502;10.030;2024-02-21T04:57:41;8.62;93.06
85097;SHT30;75436;53.502;10.030;2024-02-21T05:00:07;8.62;93.31
85097;SHT30;75436;53.502;10.030;2024-02-21T05:02:35;8.59;93.56
85097;SHT30;75436;53.502;10.030;2024-02-21T05:05:03;8.62;93.53
85097;SHT30;75436;53.502;10.030;2024-02-21T05:07:29;8.64;93.55
85097;SHT30;75436;53.502;10.030;2024-02-21T05:09:56;8.56;93.66
85097;SHT30;75436;53.502;10.030;2024-02-21T05:12:21;8.52;93.98
85097;SHT30;75436;53.502;10.030;2024-02-21T05:14:47;8.56;94.15
85097;SHT30;75436;53.502;10.030;2024-02-21T05:17:15;8.57;94.11
85097;SHT30;75436;53.502;10.030;2024-02-21T05:19:41;8.52;94.28
85097;SHT30;75436;53.502;10.030;2024-02-21T05:22:08;8.56;94.35
85097;SHT30;75436;53.502;10.030;2024-02-21T05:24:34;8.52;94.36
85097;SHT30;75436;53.502;10.030;2024-02-21T05:27:00;8.56;94.30
85097;SHT30;75436;53.502;10.030;2024-02-21T05:29:25;8.53;94.41
85097;SHT30;75436;53.502;10.030;2024-02-21T05:34:16;8.48;94.56
85097;SHT30;75436;53.502;10.030;2024-02-21T05:36:42;8.50;94.59
85097;SHT30;75436;53.502;10.030;2024-02-21T05:39:07;8.49;94.41
85097;SHT30;75436;53.502;10.030;2024-02-21T05:41:33;8.45;94.54
85097;SHT30;75436;53.502;10.030;2024-02-21T05:43:59;8.53;94.21
85097;SHT30;75436;53.502;10.030;2024-02-21T05:46:25;8.49;94.36
85097;SHT30;75436;53.502;10.030;2024-02-21T05:48:51;8.53;94.38
85097;SHT30;75436;53.502;10.030;2024-02-21T05:51:17;8.50;94.46
85097;SHT30;75436;53.502;10.030;2024-02-21T05:53:43;8.48;94.53
85097;SHT30;75436;53.502;10.030;2024-02-21T05:56:14;8.45;94.56
85097;SHT30;75436;53.502;10.030;2024-02-21T05:58:40;8.48;94.57
85097;SHT30;75436;53.502;10.030;2024-02-21T06:01:07;8.49;94.48
85097;SHT30;75436;53.502;10.030;2024-02-21T06:03:33;8.48;94.48
85097;SHT30;75436;53.502;10.030;2024-02-21T06:06:00;8.48;94.48
85097;SHT30;75436;53.502;10.030;2024-02-21T06:08:26;8.52;94.42
85097;SHT30;75436;53.502;10.030;2024-02-21T06:10:51;8.52;94.35
85097;SHT30;75436;53.502;10.030;2024-02-21T06:13:27;8.56;94.23
85097;SHT30;75436;53.502;10.030;2024-02-21T06:15:53;8.55;94.09
85097;SHT30;75436;53.502;10.030;2024-02-21T06:18:19;8.56;94.28
85097;SHT30;75436;53.502;10.030;2024-02-21T06:20:45;8.50;94.35
85097;SHT30;75436;53.502;10.030;2024-02-21T06:23:16;8.63;94.34
85097;SHT30;75436;53.502;10.030;2024-02-21T06:25:43;8.56;94.43
85097;SHT30;75436;53.502;10.030;2024-02-21T06:28:09;8.56;94.43
85097;SHT30;75436;53.502;10.030;2024-02-21T06:30:36;8.52;94.59
85097;SHT30;75436;53.502;10.030;2024-02-21T06:33:01;8.49;94.68
85097;SHT30;75436;53.502;10.030;2024-02-21T06:35:28;8.50;94.63
85097;SHT30;75436;53.502;10.030;2024-02-21T06:37:53;8.53;94.78
85097;SHT30;75436;53.502;10.030;2024-02-21T06:40:23;8.56;94.68
85097;SHT30;75436;53.502;10.030;2024-02-21T06:42:49;8.53;94.82
85097;SHT30;75436;53.502;10.030;2024-02-21T06:45:15;8.49;94.98
85097;SHT30;75436;53.502;10.030;2024-02-21T06:47:41;8.49;95.01
85097;SHT30;75436;53.502;10.030;2024-02-21T06:50:07;8.52;95.13
85097;SHT30;75436;53.502;10.030;2024-02-21T06:52:34;8.48;95.17
85097;SHT30;75436;53.502;10.030;2024-02-21T06:55:00;8.48;95.12
85097;SHT30;75436;53.502;10.030;2024-02-21T06:57:29;8.52;95.13
85097;SHT30;75436;53.502;10.030;2024-02-21T06:59:55;8.50;95.18
85097;SHT30;75436;53.502;10.030;2024-02-21T07:02:20;8.46;95.10
85097;SHT30;75436;53.502;10.030;2024-02-21T07:04:45;8.53;95.18
85097;SHT30;75436;53.502;10.030;2024-02-21T07:07:11;8.56;94.90
85097;SHT30;75436;53.502;10.030;2024-02-21T07:09:36;8.60;94.77
85097;SHT30;75436;53.502;10.030;2024-02-21T07:12:02;8.55;94.79
85097;SHT30;75436;53.502;10.030;2024-02-21T07:14:29;8.57;94.85
85097;SHT30;75436;53.502;10.030;2024-02-21T07:16:55;8.62;94.75
85097;SHT30;75436;53.502;10.030;2024-02-21T07:19:22;8.59;94.89
85097;SHT30;75436;53.502;10.030;2024-02-21T07:21:47;8.60;94.72
85097;SHT30;75436;53.502;10.030;2024-02-21T07:24:15;8.63;94.53
85097;SHT30;75436;53.502;10.030;2024-02-21T07:26:43;8.70;94.50
85097;SHT30;75436;53.502;10.030;2024-02-21T07:29:08;8.70;94.56
85097;SHT30;75436;53.502;10.030;2024-02-21T07:31:44;8.67;94.52
85097;SHT30;75436;53.502;10.030;2024-02-21T07:34:10;8.63;94.65
85097;SHT30;75436;53.502;10.030;2024-02-21T07:36:37;8.67;94.49
85097;SHT30;75436;53.502;10.030;2024-02-21T07:39:04;8.70;94.42
85097;SHT30;75436;53.502;10.030;2024-02-21T07:41:30;8.70;94.55
85097;SHT30;75436;53.502;10.030;2024-02-21T07:43:56;8.63;94.59
85097;SHT30;75436;53.502;10.030;2024-02-21T07:46:21;8.69;94.86
85097;SHT30;75436;53.502;10.030;2024-02-21T07:48:47;8.66;94.49
85097;SHT30;75436;53.502;10.030;2024-02-21T07:51:12;8.70;94.59
85097;SHT30;75436;53.502;10.030;2024-02-21T07:53:41;8.70;94.31
85097;SHT30;75436;53.502;10.030;2024-02-21T07:56:13;8.64;94.61
85097;SHT30;75436;53.502;10.030;2024-02-21T07:58:40;8.69;94.50
85097;SHT30;75436;53.502;10.030;2024-02-21T08:01:06;8.66;94.62
85097;SHT30;75436;53.502;10.030;2024-02-21T08:03:32;8.56;94.94
85097;SHT30;75436;53.502;10.030;2024-02-21T08:05:57;8.59;94.99
85097;SHT30;75436;53.502;10.030;2024-02-21T08:08:23;8.59;94.97
85097;SHT30;75436;53.502;10.030;2024-02-21T08:10:51;8.63;95.10
85097;SHT30;75436;53.502;10.030;2024-02-21T08:13:16;8.59;94.99
85097;SHT30;75436;53.502;10.030;2024-02-21T08:15:42;8.59;95.13
85097;SHT30;75436;53.502;10.030;2024-02-21T08:18:08;8.63;95.21
85097;SHT30;75436;53.502;10.030;2024-02-21T08:20:34;8.63;95.20
85097;SHT30;75436;53.502;10.030;2024-02-21T08:23:00;8.62;95.47
85097;SHT30;75436;53.502;10.030;2024-02-21T08:25:26;8.66;95.38
85097;SHT30;75436;53.502;10.030;2024-02-21T08:27:58;8.62;95.60
85097;SHT30;75436;53.502;10.030;2024-02-21T08:30:23;8.57;95.54
85097;SHT30;75436;53.502;10.030;2024-02-21T08:32:49;8.62;95.73
85097;SHT30;75436;53.502;10.030;2024-02-21T08:35:14;8.63;95.33
85097;SHT30;75436;53.502;10.030;2024-02-21T08:37:40;8.57;95.16
85097;SHT30;75436;53.502;10.030;2024-02-21T08:40:08;8.57;95.09
85097;SHT30;75436;53.502;10.030;2024-02-21T08:42:36;8.48;95.09
85097;SHT30;75436;53.502;10.030;2024-02-21T08:45:03;8.38;94.72
85097;SHT30;75436;53.502;10.030;2024-02-21T08:47:28;8.32;94.62
85097;SHT30;75436;53.502;10.030;2024-02-21T08:49:54;8.33;94.78
85097;SHT30;75436;53.502;10.030;2024-02-21T08:52:19;8.25;94.89
85097;SHT30;75436;53.502;10.030;2024-02-21T08:54:48;8.21;94.70
85097;SHT30;75436;53.502;10.030;2024-02-21T08:57:15;8.16;94.98
85097;SHT30;75436;53.502;10.030;2024-02-21T08:59:40;8.22;95.04
85097;SHT30;75436;53.502;10.030;2024-02-21T09:02:06;8.26;95.03
85097;SHT30;75436;53.502;10.030;2024-02-21T09:04:32;8.22;94.85
85097;SHT30;75436;53.502;10.030;2024-02-21T09:06:58;8.20;94.87
85097;SHT30;75436;53.502;10.030;2024-02-21T09:09:23;8.12;95.03
85097;SHT30;75436;53.502;10.030;2024-02-21T09:11:49;8.22;95.19
85097;SHT30;75436;53.502;10.030;2024-02-21T09:14:14;8.22;94.92
85097;SHT30;75436;53.502;10.030;2024-02-21T09:16:40;8.20;94.95
85097;SHT30;75436;53.502;10.030;2024-02-21T09:19:05;8.28;95.15
85097;SHT30;75436;53.502;10.030;2024-02-21T09:21:31;8.29;94.90
85097;SHT30;75436;53.502;10.030;2024-02-21T09:23:56;8.36;95.01
85097;SHT30;75436;53.502;10.030;2024-02-21T09:26:22;8.33;95.06
85097;SHT30;75436;53.502;10.030;2024-02-21T09:28:48;8.29;94.95
85097;SHT30;75436;53.502;10.030;2024-02-21T09:31:16;8.29;95.15
85097;SHT30;75436;53.502;10.030;2024-02-21T09:33:41;8.35;95.21
85097;SHT30;75436;53.502;10.030;2024-02-21T09:36:06;8.28;95.40
85097;SHT30;75436;53.502;10.030;2024-02-21T09:38:32;8.33;95.36
85097;SHT30;75436;53.502;10.030;2024-02-21T09:41:03;8.42;95.37
85097;SHT30;75436;53.502;10.030;2024-02-21T09:43:33;8.42;95.31
85097;SHT30;75436;53.502;10.030;2024-02-21T09:46:01;8.41;95.59
85097;SHT30;75436;53.502;10.030;2024-02-21T09:51:36;8.50;95.62
85097;SHT30;75436;53.502;10.030;2024-02-21T09:54:03;8.56;95.54
85097;SHT30;75436;53.502;10.030;2024-02-21T09:56:30;8.60;95.52
85097;SHT30;75436;53.502;10.030;2024-02-21T09:58:57;8.60;95.67
85097;SHT30;75436;53.502;10.030;2024-02-21T10:01:22;8.74;95.61
85097;SHT30;75436;53.502;10.030;2024-02-21T10:03:48;8.74;95.59
85097;SHT30;75436;53.502;10.030;2024-02-21T10:06:13;8.81;95.13
85097;SHT30;75436;53.502;10.030;2024-02-21T10:08:39;8.79;95.09
85097;SHT30;75436;53.502;10.030;2024-02-21T10:11:05;8.83;95.05
85097;SHT30;75436;53.502;10.030;2024-02-21T10:13:31;8.81;94.94
85097;SHT30;75436;53.502;10.030;2024-02-21T10:16:07;8.84;94.82
85097;SHT30;75436;53.502;10.030;2024-02-21T10:18:34;8.81;94.56
85097;SHT30;75436;53.502;10.030;2024-02-21T10:21:05;8.88;94.45
85097;SHT30;75436;53.502;10.030;2024-02-21T10:23:49;8.99;94.10
85097;SHT30;75436;53.502;10.030;2024-02-21T10:26:16;8.96;93.97
85097;SHT30;75436;53.502;10.030;2024-02-21T10:28:42;9.07;93.81
85097;SHT30;75436;53.502;10.030;2024-02-21T10:31:20;8.96;93.87
85097;SHT30;75436;53.502;10.030;2024-02-21T10:33:57;9.05;93.48
85097;SHT30;75436;53.502;10.030;2024-02-21T10:36:23;9.03;93.69
85097;SHT30;75436;53.502;10.030;2024-02-21T10:38:51;9.03;93.51
85097;SHT30;75436;53.502;10.030;2024-02-21T10:41:20;9.10;93.61
85097;SHT30;75436;53.502;10.030;2024-02-21T10:43:54;9.17;92.83
85097;SHT30;75436;53.502;10.030;2024-02-21T10:46:22;9.17;92.99
85097;SHT30;75436;53.502;10.030;2024-02-21T10:49:05;9.15;92.42
85097;SHT30;75436;53.502;10.030;2024-02-21T10:51:34;9.10;92.87
85097;SHT30;75436;53.502;10.030;2024-02-21T10:56:43;9.13;92.22
85097;SHT30;75436;53.502;10.030;2024-02-21T10:59:08;9.17;92.55
85097;SHT30;75436;53.502;10.030;2024-02-21T11:01:34;9.22;91.67
85097;SHT30;75436;53.502;10.030;2024-02-21T11:04:09;9.13;92.12
85097;SHT30;75436;53.502;10.030;2024-02-21T11:06:40;9.17;91.93
85097;SHT30;75436;53.502;10.030;2024-02-21T11:09:08;9.13;91.97
85097;SHT30;75436;53.502;10.030;2024-02-21T11:11:37;9.17;92.25
85097;SHT30;75436;53.502;10.030;2024-02-21T11:14:11;9.08;91.73
85097;SHT30;75436;53.502;10.030;2024-02-21T11:16:38;9.10;91.98
85097;SHT30;75436;53.502;10.030;2024-02-21T11:19:22;9.18;91.74
85097;SHT30;75436;53.502;10.030;2024-02-21T11:21:49;9.21;91.66
85097;SHT30;75436;53.502;10.030;2024-02-21T11:24:32;9.14;91.08
85097;SHT30;75436;53.502;10.030;2024-02-21T11:27:20;9.15;91.26
85097;SHT30;75436;53.502;10.030;2024-02-21T11:29:57;9.14;91.23
85097;SHT30;75436;53.502;10.030;2024-02-21T11:32:25;9.08;91.03
85097;SHT30;75436;53.502;10.030;2024-02-21T11:34:58;9.11;90.73
85097;SHT30;75436;53.502;10.030;2024-02-21T11:37:35;9.05;90.99
85097;SHT30;75436;53.502;10.030;2024-02-21T11:40:03;9.13;91.06
85097;SHT30;75436;53.502;10.030;2024-02-21T11:42:30;9.05;91.20
85097;SHT30;75436;53.502;10.030;2024-02-21T11:44:57;9.10;90.71
85097;SHT30;75436;53.502;10.030;2024-02-21T11:47:23;9.18;90.62
85097;SHT30;75436;53.502;10.030;2024-02-21T11:49:49;9.18;90.82
85097;SHT30;75436;53.502;10.030;2024-02-21T11:52:21;9.07;90.48
85097;SHT30;75436;53.502;10.030;2024-02-21T11:54:48;9.15;89.83
85097;SHT30;75436;53.502;10.030;2024-02-21T11:57:14;9.28;89.63
85097;SHT30;75436;53.502;10.030;2024-02-21T11:59:40;9.28;90.21
85097;SHT30;75436;53.502;10.030;2024-02-21T12:02:06;9.21;89.50
85097;SHT30;75436;53.502;10.030;2024-02-21T12:04:32;9.20;89.57
85097;SHT30;75436;53.502;10.030;2024-02-21T12:06:59;9.08;89.61
85097;SHT30;75436;53.502;10.030;2024-02-21T12:09:25;9.18;89.66
85097;SHT30;75436;53.502;10.030;2024-02-21T12:12:02;9.18;89.46
85097;SHT30;75436;53.502;10.030;2024-02-21T12:14:34;9.18;89.46
85097;SHT30;75436;53.502;10.030;2024-02-21T12:17:01;9.14;89.91
85097;SHT30;75436;53.502;10.030;2024-02-21T12:19:30;9.13;90.42
85097;SHT30;75436;53.502;10.030;2024-02-21T12:21:56;9.01;90.68
85097;SHT30;75436;53.502;10.030;2024-02-21T12:24:28;9.04;90.57
85097;SHT30;75436;53.502;10.030;2024-02-21T12:26:55;8.93;91.16
85097;SHT30;75436;53.502;10.030;2024-02-21T12:29:24;8.87;91.36
85097;SHT30;75436;53.502;10.030;2024-02-21T12:31:51;8.91;91.77
85097;SHT30;75436;53.502;10.030;2024-02-21T12:34:17;8.85;91.31
85097;SHT30;75436;53.502;10.030;2024-02-21T12:36:45;8.91;90.69
85097;SHT30;75436;53.502;10.030;2024-02-21T12:39:13;8.84;90.94
85097;SHT30;75436;53.502;10.030;2024-02-21T12:41:42;9.01;89.97
85097;SHT30;75436;53.502;10.030;2024-02-21T12:44:10;8.97;90.31
85097;SHT30;75436;53.502;10.030;2024-02-21T12:46:39;8.96;90.54
85097;SHT30;75436;53.502;10.030;2024-02-21T12:49:05;9.00;90.58
85097;SHT30;75436;53.502;10.030;2024-02-21T12:51:31;9.07;90.51
85097;SHT30;75436;53.502;10.030;2024-02-21T12:53:57;9.15;90.53
85097;SHT30;75436;53.502;10.030;2024-02-21T12:56:23;9.10;89.53
85097;SHT30;75436;53.502;10.030;2024-02-21T12:58:50;9.24;89.18
85097;SHT30;75436;53.502;10.030;2024-02-21T13:01:17;9.24;88.59
85097;SHT30;75436;53.502;10.030;2024-02-21T13:03:43;9.25;88.45
85097;SHT30;75436;53.502;10.030;2024-02-21T13:06:08;9.41;88.93
85097;SHT30;75436;53.502;10.030;2024-02-21T13:08:36;9.34;88.44
85097;SHT30;75436;53.502;10.030;2024-02-21T13:11:02;9.36;88.06
85097;SHT30;75436;53.502;10.030;2024-02-21T13:13:28;9.48;88.02
85097;SHT30;75436;53.502;10.030;2024-02-21T13:15:53;9.59;87.84
85097;SHT30;75436;53.502;10.030;2024-02-21T13:18:19;9.66;87.72
85097;SHT30;75436;53.502;10.030;2024-02-21T13:20:44;9.69;87.45
85097;SHT30;75436;53.502;10.030;2024-02-21T13:23:11;9.65;87.69
85097;SHT30;75436;53.502;10.030;2024-02-21T13:25:36;9.71;87.80
85097;SHT30;75436;53.502;10.030;2024-02-21T13:28:02;9.76;86.44
85097;SHT30;75436;53.502;10.030;2024-02-21T13:30:29;9.59;87.02
85097;SHT30;75436;53.502;10.030;2024-02-21T13:32:54;9.62;87.24
85097;SHT30;75436;53.502;10.030;2024-02-21T13:35:20;9.56;87.07
85097;SHT30;75436;53.502;10.030;2024-02-21T13:37:46;9.52;86.66
85097;SHT30;75436;53.502;10.030;2024-02-21T13:40:12;9.55;87.26
85097;SHT30;75436;53.502;10.030;2024-02-21T13:42:40;9.66;86.32
85097;SHT30;75436;53.502;10.030;2024-02-21T13:45:06;9.65;86.70
85097;SHT30;75436;53.502;10.030;2024-02-21T13:47:33;9.73;86.26
85097;SHT30;75436;53.502;10.030;2024-02-21T13:49:59;9.75;85.26
85097;SHT30;75436;53.502;10.030;2024-02-21T13:52:25;9.76;86.42
85097;SHT30;75436;53.502;10.030;2024-02-21T13:54:53;9.93;86.23
85097;SHT30;75436;53.502;10.030;2024-02-21T13:57:19;9.79;84.93
85097;SHT30;75436;53.502;10.030;2024-02-21T13:59:44;9.78;84.24
85097;SHT30;75436;53.502;10.030;2024-02-21T14:02:09;9.93;84.46
85097;SHT30;75436;53.502;10.030;2024-02-21T14:04:35;9.87;83.87
85097;SHT30;75436;53.502;10.030;2024-02-21T14:07:01;9.92;83.77
85097;SHT30;75436;53.502;10.030;2024-02-21T14:09:28;10.03;83.18
85097;SHT30;75436;53.502;10.030;2024-02-21T14:11:56;10.01;82.36
85097;SHT30;75436;53.502;10.030;2024-02-21T14:14:21;10.23;81.97
85097;SHT30;75436;53.502;10.030;2024-02-21T14:16:48;10.29;80.48
85097;SHT30;75436;53.502;10.030;2024-02-21T14:19:14;10.21;80.03
85097;SHT30;75436;53.502;10.030;2024-02-21T14:21:41;10.17;81.84
85097;SHT30;75436;53.502;10.030;2024-02-21T14:24:07;10.17;81.20
85097;SHT30;75436;53.502;10.030;2024-02-21T14:26:34;10.20;82.50
85097;SHT30;75436;53.502;10.030;2024-02-21T14:29:01;10.40;83.33
85097;SHT30;75436;53.502;10.030;2024-02-21T14:31:31;10.48;82.05
85097;SHT30;75436;53.502;10.030;2024-02-21T14:33:58;10.33;82.49
85097;SHT30;75436;53.502;10.030;2024-02-21T14:36:24;10.34;81.92
85097;SHT30;75436;53.502;10.030;2024-02-21T14:38:49;10.38;81.50
85097;SHT30;75436;53.502;10.030;2024-02-21T14:41:18;10.30;80.81
85097;SHT30;75436;53.502;10.030;2024-02-21T14:43:44;10.37;81.31
85097;SHT30;75436;53.502;10.030;2024-02-21T14:46:09;10.45;80.14
85097;SHT30;75436;53.502;10.030;2024-02-21T14:48:35;10.33;79.44
85097;SHT30;75436;53.502;10.030;2024-02-21T14:51:01;10.21;81.42
85097;SHT30;75436;53.502;10.030;2024-02-21T14:53:27;10.13;82.04
85097;SHT30;75436;53.502;10.030;2024-02-21T14:55:53;10.06;81.71
85097;SHT30;75436;53.502;10.030;2024-02-21T14:58:18;10.00;81.51
85097;SHT30;75436;53.502;10.030;2024-02-21T15:00:46;9.97;81.87
85097;SHT30;75436;53.502;10.030;2024-02-21T15:03:16;10.03;80.38
85097;SHT30;75436;53.502;10.030;2024-02-21T15:05:45;9.96;81.88
85097;SHT30;75436;53.502;10.030;2024-02-21T15:08:11;9.97;82.22
85097;SHT30;75436;53.502;10.030;2024-02-21T15:10:37;9.90;81.84
85097;SHT30;75436;53.502;10.030;2024-02-21T15:13:04;9.94;80.48
85097;SHT30;75436;53.502;10.030;2024-02-21T15:15:30;9.87;80.81
85097;SHT30;75436;53.502;10.030;2024-02-21T15:17:55;9.93;79.24
85097;SHT30;75436;53.502;10.030;2024-02-21T15:20:21;10.01;79.00
85097;SHT30;75436;53.502;10.030;2024-02-21T15:22:46;9.90;79.12
85097;SHT30;75436;53.502;10.030;2024-02-21T15:25:12;9.82;79.37
85097;SHT30;75436;53.502;10.030;2024-02-21T15:27:45;9.80;80.20
85097;SHT30;75436;53.502;10.030;2024-02-21T15:30:13;9.68;80.10
85097;SHT30;75436;53.502;10.030;2024-02-21T15:32:40;9.61;79.97
85097;SHT30;75436;53.502;10.030;2024-02-21T15:35:09;9.58;80.31
85097;SHT30;75436;53.502;10.030;2024-02-21T15:37:36;9.61;81.12